Time;durP1;ratioP1;P1;durP2;ratioP2;P2;SDS_P1;SDS_P2;PMS_P1;PMS_P2;Temp;Humidity;BMP_temperature;BMP_pressure;BME280_temperature;BME280_humidity;BME280_pressure;Samples;Min_cycle;Max_cycle;Signal;HPM_P1;HPM_P2
2023/08/02 00:02:56;;;;;;;1.83;1.10;;;;;;;20.97;95.79;98878.28;6245722;28;20080;-71
2023/08/02 00:05:58;;;;;;;2.53;1.30;;;;;;;20.91;96.74;98875.38;6261294;28;20076;-70
2023/08/02 00:08:59;;;;;;;1.98;1.20;;;;;;;20.90;96.58;98865.78;6245599;28;20091;-71
2023/08/02 00:12:02;;;;;;;1.20;0.90;;;;;;;20.86;96.65;98875.13;6248668;28;20049;-71
2023/08/02 00:15:05;;;;;;;1.02;0.88;;;;;;;20.85;96.34;98865.50;6265635;28;20088;-71
2023/08/02 00:18:06;;;;;;;2.92;0.90;;;;;;;20.87;96.67;98890.00;6249205;28;20049;-70
2023/08/02 00:21:07;;;;;;;1.20;1.00;;;;;;;20.85;97.50;98889.38;6265387;28;20413;-71
2023/08/02 00:24:09;;;;;;;3.03;0.97;;;;;;;20.77;97.88;98884.19;6250274;28;20132;-71
2023/08/02 00:27:12;;;;;;;0.95;0.85;;;;;;;20.67;98.02;98896.91;6248911;28;20057;-71
2023/08/02 00:30:13;;;;;;;12.55;1.10;;;;;;;20.62;97.78;98900.13;6249658;28;20496;-70
2023/08/02 00:33:14;;;;;;;2.27;0.90;;;;;;;20.58;97.47;98916.56;6249923;28;20049;-70
2023/08/02 00:36:15;;;;;;;1.65;0.80;;;;;;;20.45;98.13;98926.00;6264834;28;20057;-71
2023/08/02 00:39:15;;;;;;;0.63;0.63;;;;;;;20.42;99.12;98914.94;6248620;28;20045;-71
2023/08/02 00:42:16;;;;;;;0.60;0.60;;;;;;;20.38;98.52;98909.19;6248359;28;20049;-71
2023/08/02 00:45:17;;;;;;;1.10;0.60;;;;;;;20.33;98.50;98901.81;6249778;28;20057;-70
2023/08/02 00:48:17;;;;;;;1.13;0.90;;;;;;;20.41;98.17;98923.91;6264877;28;20049;-71
2023/08/02 00:51:19;;;;;;;1.13;0.80;;;;;;;20.30;98.63;98926.03;6249403;28;20060;-70
2023/08/02 00:54:20;;;;;;;0.93;0.80;;;;;;;20.28;99.07;98925.38;6248157;28;20056;-71
2023/08/02 00:57:20;;;;;;;0.63;0.63;;;;;;;20.34;99.13;98921.16;6249255;28;20412;-70
2023/08/02 01:00:21;;;;;;;2.03;0.70;;;;;;;20.29;99.12;98918.25;6264651;28;20041;-71
2023/08/02 01:03:22;;;;;;;2.17;0.77;;;;;;;20.29;98.62;98907.66;6249016;28;20084;-70
2023/08/02 01:06:36;;;;;;;0.97;0.53;;;;;;;20.36;99.32;98902.44;6247859;28;20060;-70
2023/08/02 01:10:04;;;;;;;0.50;0.50;;;;;;;20.35;98.61;98900.81;6248786;28;20102;-70
2023/08/02 01:13:05;;;;;;;0.82;0.65;;;;;;;20.37;99.16;98898.81;6247808;28;20084;-70
2023/08/02 01:16:07;;;;;;;0.57;0.55;;;;;;;20.32;98.82;98900.19;6248785;28;20485;-71
2023/08/02 01:19:08;;;;;;;;;;;;;;;20.25;99.94;98890.50;6248023;28;20451;-71
2023/08/02 01:22:09;;;;;;;0.60;0.55;;;;;;;20.29;100.00;98882.00;6246337;28;19924;-70
2023/08/02 01:25:10;;;;;;;0.43;0.43;;;;;;;20.23;99.00;98881.91;6247588;28;20488;-70
2023/08/02 01:28:19;;;;;;;1.30;0.80;;;;;;;20.28;98.84;98861.81;6247281;28;20107;-71
2023/08/02 01:31:22;;;;;;;0.70;0.60;;;;;;;20.27;99.12;98870.75;6247389;28;20099;-70
2023/08/02 01:34:23;;;;;;;0.55;0.55;;;;;;;20.32;98.83;98872.84;6246883;28;20085;-71
2023/08/02 01:37:24;;;;;;;1.00;0.60;;;;;;;20.29;99.10;98889.94;6248570;28;20057;-70
2023/08/02 01:40:25;;;;;;;0.97;0.70;;;;;;;20.30;99.83;98899.53;6263625;28;20045;-70
2023/08/02 01:43:25;;;;;;;1.00;0.50;;;;;;;20.29;99.61;98921.72;6248380;28;20049;-70
2023/08/02 01:46:26;;;;;;;1.03;0.70;;;;;;;20.11;100.00;98935.31;6280111;28;20489;-71
2023/08/02 01:49:27;;;;;;;2.67;0.43;;;;;;;19.74;100.00;98944.13;6248080;28;20056;-71
2023/08/02 01:52:28;;;;;;;0.80;0.63;;;;;;;19.77;100.00;98935.84;6246639;28;20075;-71
2023/08/02 01:55:28;;;;;;;0.53;0.53;;;;;;;19.64;100.00;98940.88;6246618;28;20059;-70
2023/08/02 01:58:30;;;;;;;0.40;0.40;;;;;;;19.61;100.00;98926.19;6247826;28;20045;-70
2023/08/02 02:01:31;;;;;;;1.05;0.70;;;;;;;19.63;100.00;98955.94;6246515;28;20046;-71
2023/08/02 02:04:32;;;;;;;1.67;0.65;;;;;;;19.61;100.00;98936.78;6246382;28;20052;-70
2023/08/02 02:07:32;;;;;;;0.90;0.50;;;;;;;19.65;100.00;98942.56;6262969;28;20099;-71
2023/08/02 02:10:33;;;;;;;0.80;0.60;;;;;;;19.77;100.00;98938.50;6247441;28;20069;-71
2023/08/02 02:13:34;;;;;;;1.03;0.50;;;;;;;19.79;100.00;98955.03;6247511;28;20575;-71
2023/08/02 02:16:37;;;;;;;3.70;0.67;;;;;;;19.76;100.00;98950.06;6246712;28;20057;-70
2023/08/02 02:19:37;;;;;;;2.88;0.63;;;;;;;19.80;100.00;98961.94;6247271;28;20428;-71
2023/08/02 02:22:39;;;;;;;2.23;0.53;;;;;;;19.68;100.00;98953.59;6262516;28;20100;-70
2023/08/02 02:25:42;;;;;;;2.53;0.70;;;;;;;19.67;100.00;98948.47;6246087;28;20485;-71
2023/08/02 02:28:42;;;;;;;1.00;0.32;;;;;;;19.67;100.00;98953.78;6245828;28;20046;-71
2023/08/02 02:31:45;;;;;;;0.93;0.50;;;;;;;19.62;100.00;98977.28;6247245;28;20064;-70
2023/08/02 02:34:46;;;;;;;1.38;0.50;;;;;;;19.55;100.00;98955.22;6246683;28;20104;-70
2023/08/02 02:37:47;;;;;;;0.77;0.67;;;;;;;19.51;100.00;98955.53;6246990;28;20049;-70
2023/08/02 02:40:50;;;;;;;0.57;0.40;;;;;;;19.65;100.00;98953.94;6246843;28;20045;-70
2023/08/02 02:43:51;;;;;;;1.38;0.70;;;;;;;19.60;100.00;98960.78;6247010;28;20055;-70
2023/08/02 02:46:52;;;;;;;0.67;0.50;;;;;;;19.56;100.00;98978.00;6262334;28;20435;-70
2023/08/02 02:49:52;;;;;;;0.97;0.50;;;;;;;19.44;100.00;98981.06;6262216;28;20084;-70
2023/08/02 02:52:55;;;;;;;1.00;0.50;;;;;;;19.37;100.00;98990.69;6262229;28;20123;-70
2023/08/02 02:55:56;;;;;;;0.75;0.57;;;;;;;19.35;100.00;99002.47;6246574;28;20053;-70
2023/08/02 02:58:57;;;;;;;0.63;0.60;;;;;;;19.34;100.00;99009.59;6262098;28;20046;-70
2023/08/02 03:02:01;;;;;;;1.10;0.82;;;;;;;19.36;100.00;99004.13;6246507;28;20049;-70
2023/08/02 03:05:05;;;;;;;1.52;0.70;;;;;;;19.33;100.00;99014.06;6245434;28;20057;-70
2023/08/02 03:08:05;;;;;;;0.80;0.70;;;;;;;19.28;100.00;99011.09;6261691;28;20053;-70
2023/08/02 03:11:06;;;;;;;0.80;0.70;;;;;;;19.28;100.00;98999.69;6245465;28;20463;-70
2023/08/02 03:14:09;;;;;;;0.70;0.70;;;;;;;19.33;100.00;99003.47;6246257;28;20056;-70
2023/08/02 03:17:13;;;;;;;0.82;0.65;;;;;;;19.29;100.00;99014.56;6246629;28;20056;-70
2023/08/02 03:20:13;;;;;;;0.70;0.70;;;;;;;19.30;100.00;99003.00;6261665;28;20103;-71
2023/08/02 03:23:14;;;;;;;0.80;0.80;;;;;;;19.31;100.00;99012.56;6246458;28;20053;-70
2023/08/02 03:26:15;;;;;;;1.50;1.07;;;;;;;19.27;100.00;99019.19;6245081;28;20140;-70
2023/08/02 03:29:15;;;;;;;1.60;0.80;;;;;;;19.30;100.00;99018.88;6246080;28;20087;-70
2023/08/02 03:32:21;;;;;;;2.45;0.88;;;;;;;19.23;100.00;99020.53;6244949;28;20057;-71
2023/08/02 03:35:23;;;;;;;1.83;0.90;;;;;;;19.03;100.00;99039.50;6246060;28;20068;-71
2023/08/02 03:38:23;;;;;;;1.33;0.97;;;;;;;18.82;100.00;99047.19;6261475;28;20093;-71
2023/08/02 03:41:24;;;;;;;1.17;0.90;;;;;;;18.83;100.00;99049.66;6246002;28;20054;-70
2023/08/02 03:44:25;;;;;;;0.83;0.70;;;;;;;18.80;100.00;99049.16;6261457;28;20049;-71
2023/08/02 03:47:25;;;;;;;0.70;0.70;;;;;;;18.66;100.00;99043.56;6251070;28;20053;-71
2023/08/02 03:50:29;;;;;;;1.98;1.17;;;;;;;18.65;100.00;99046.38;6249763;28;20103;-70
2023/08/02 03:53:31;;;;;;;0.88;0.70;;;;;;;18.51;100.00;99050.53;6250734;28;20058;-70
2023/08/02 03:56:31;;;;;;;1.13;0.80;;;;;;;18.63;100.00;99072.16;6250653;28;20056;-70
2023/08/02 03:59:32;;;;;;;1.27;0.90;;;;;;;18.61;100.00;99082.88;6250790;28;20186;-70
2023/08/02 04:02:33;;;;;;;3.93;0.90;;;;;;;18.62;100.00;99087.19;6249276;28;20049;-70
2023/08/02 04:05:34;;;;;;;1.43;0.83;;;;;;;18.62;100.00;99092.47;6250968;28;20057;-70
2023/08/02 04:08:35;;;;;;;1.38;0.88;;;;;;;18.50;100.00;99094.63;6265776;28;20049;-70
2023/08/02 04:11:38;;;;;;;1.55;0.88;;;;;;;18.49;100.00;99094.78;6250587;28;20054;-70
2023/08/02 04:14:39;;;;;;;1.35;1.13;;;;;;;18.37;100.00;99110.19;6249033;28;20056;-70
2023/08/02 04:17:39;;;;;;;2.05;1.25;;;;;;;18.44;100.00;99100.59;6250465;28;20140;-70
2023/08/02 04:20:40;;;;;;;1.02;0.90;;;;;;;18.35;100.00;99092.84;6249163;28;20400;-70
2023/08/02 04:23:41;;;;;;;2.40;1.55;;;;;;;18.27;100.00;99093.69;6248912;28;20049;-70
2023/08/02 04:26:41;;;;;;;2.25;0.80;;;;;;;18.35;100.00;99092.84;6265360;28;20140;-70
2023/08/02 04:29:44;;;;;;;1.20;0.85;;;;;;;18.37;100.00;99096.97;6249789;28;20054;-71
2023/08/02 04:32:45;;;;;;;2.38;1.00;;;;;;;18.48;100.00;99090.50;6250045;28;20134;-71
2023/08/02 04:35:46;;;;;;;4.32;1.48;;;;;;;18.50;100.00;99088.53;6248468;28;20053;-70
2023/08/02 04:38:50;;;;;;;1.35;1.08;;;;;;;18.48;100.00;99085.22;6249773;28;20409;-70
2023/08/02 04:41:54;;;;;;;1.75;1.30;;;;;;;18.39;100.00;99086.22;6248422;28;20086;-70
2023/08/02 04:44:57;;;;;;;1.23;1.02;;;;;;;18.45;100.00;99085.56;6249893;28;20049;-70
2023/08/02 04:47:58;;;;;;;1.65;1.13;;;;;;;18.47;100.00;99071.22;6248318;28;20140;-70
2023/08/02 04:51:04;;;;;;;2.13;1.20;;;;;;;18.53;100.00;99072.31;6248594;28;20063;-71
2023/08/02 04:54:05;;;;;;;2.22;1.52;;;;;;;18.45;100.00;99086.41;6249250;28;20049;-70
2023/08/02 04:57:08;;;;;;;1.92;1.73;;;;;;;18.52;100.00;99081.25;6248292;28;20053;-70
2023/08/02 05:00:09;;;;;;;4.32;1.55;;;;;;;18.61;100.00;99088.16;6249329;28;20045;-70
2023/08/02 05:03:10;;;;;;;2.10;1.40;;;;;;;18.72;100.00;99087.00;6249124;28;20528;-70
2023/08/02 05:06:11;;;;;;;1.92;1.45;;;;;;;18.75;100.00;99091.94;6249180;28;20107;-70
2023/08/02 05:09:14;;;;;;;3.13;1.30;;;;;;;18.83;100.00;99096.41;6247788;28;20045;-70
2023/08/02 05:12:14;;;;;;;2.22;1.67;;;;;;;18.89;100.00;99106.28;6249151;28;20156;-71
2023/08/02 05:15:17;;;;;;;1.88;1.40;;;;;;;18.91;100.00;99105.13;6247531;28;20053;-71
2023/08/02 05:18:18;;;;;;;1.45;1.27;;;;;;;18.81;100.00;99109.78;6248720;28;20486;-71
2023/08/02 05:21:19;;;;;;;2.33;1.55;;;;;;;18.80;100.00;99108.16;6248635;28;20077;-71
2023/08/02 05:24:20;;;;;;;3.28;1.90;;;;;;;18.92;100.00;99105.94;6248852;28;20140;-70
2023/08/02 05:27:20;;;;;;;3.20;1.77;;;;;;;19.18;100.00;99103.03;6247442;28;20107;-71
2023/08/02 05:30:21;;;;;;;2.58;1.45;;;;;;;19.05;100.00;99102.78;6248658;28;20076;-71
2023/08/02 05:33:24;;;;;;;3.65;1.83;;;;;;;18.98;100.00;99112.38;6248500;28;20049;-71
2023/08/02 05:36:25;;;;;;;2.97;1.55;;;;;;;19.25;100.00;99119.88;6248015;28;20053;-70
2023/08/02 05:39:26;;;;;;;3.35;2.13;;;;;;;19.53;100.00;99125.50;6248493;28;20052;-71
2023/08/02 05:42:29;;;;;;;5.03;1.83;;;;;;;19.58;100.00;99130.31;6263587;28;20053;-70
2023/08/02 05:45:32;;;;;;;4.82;1.90;;;;;;;19.88;100.00;99125.16;6263663;28;20107;-71
2023/08/02 05:48:35;;;;;;;2.95;1.90;;;;;;;19.82;98.01;99126.69;6248002;28;20041;-70
2023/08/02 05:51:35;;;;;;;2.85;1.67;;;;;;;20.00;95.42;99134.34;6248191;28;20053;-70
2023/08/02 05:54:36;;;;;;;2.97;1.80;;;;;;;20.09;97.15;99130.63;6247825;28;20060;-70
2023/08/02 05:57:37;;;;;;;3.55;1.73;;;;;;;19.70;97.62;99134.19;6263498;28;20060;-71
2023/08/02 06:00:37;;;;;;;2.57;1.53;;;;;;;20.24;96.42;99138.63;6247917;28;20053;-71
2023/08/02 06:03:38;;;;;;;1.90;1.50;;;;;;;20.43;95.89;99134.66;6247642;28;20393;-71
2023/08/02 06:06:39;;;;;;;2.40;1.83;;;;;;;20.58;94.34;99139.16;6247821;28;20273;-70
2023/08/02 06:09:42;;;;;;;2.87;1.80;;;;;;;20.62;90.16;99127.22;6262413;28;20123;-71
2023/08/02 06:12:44;;;;;;;2.65;1.88;;;;;;;20.53;90.67;99137.88;6247688;28;20056;-70
2023/08/02 06:15:44;;;;;;;2.97;1.90;;;;;;;20.66;91.05;99136.47;6246202;28;20053;-70
2023/08/02 06:18:45;;;;;;;2.17;1.63;;;;;;;21.03;90.86;99148.00;6246436;28;20095;-71
2023/08/02 06:21:46;;;;;;;3.23;1.90;;;;;;;20.80;88.87;99153.41;6246114;28;20053;-70
2023/08/02 06:24:46;;;;;;;2.93;1.80;;;;;;;20.91;88.51;99151.09;6246293;28;20136;-70
2023/08/02 06:27:47;;;;;;;3.23;1.80;;;;;;;21.16;87.57;99157.97;6245919;28;20045;-70
2023/08/02 06:30:48;;;;;;;2.93;2.00;;;;;;;21.56;86.11;99156.69;6246100;28;20099;-70
2023/08/02 06:33:49;;;;;;;3.17;1.87;;;;;;;21.73;85.81;99157.25;6247405;28;20045;-70
2023/08/02 06:36:50;;;;;;;3.53;2.40;;;;;;;21.88;83.94;99159.88;6246713;28;20076;-71
2023/08/02 06:39:50;;;;;;;1.83;1.63;;;;;;;21.99;83.58;99163.84;6247093;28;20477;-70
2023/08/02 06:42:51;;;;;;;2.63;1.67;;;;;;;22.14;81.88;99170.75;6245981;28;20050;-70
2023/08/02 06:45:52;;;;;;;3.60;1.97;;;;;;;22.19;80.81;99180.00;6246810;28;20049;-70
2023/08/02 06:48:52;;;;;;;1.80;1.53;;;;;;;22.44;81.69;99189.22;6245588;28;20504;-70
2023/08/02 06:51:53;;;;;;;2.70;1.70;;;;;;;22.58;80.23;99178.72;6247019;28;20103;-71
2023/08/02 06:54:55;;;;;;;5.27;1.80;;;;;;;22.60;77.39;99190.00;6246774;28;20057;-70
2023/08/02 06:57:56;;;;;;;2.53;1.85;;;;;;;22.58;76.84;99197.34;6246508;28;20053;-70
2023/08/02 07:00:57;;;;;;;3.30;2.10;;;;;;;22.80;78.30;99196.28;6261927;28;20053;-71
2023/08/02 07:03:57;;;;;;;3.80;2.20;;;;;;;22.80;78.88;99192.81;6245283;28;20137;-71
2023/08/02 07:06:58;;;;;;;2.93;2.07;;;;;;;23.00;77.62;99198.25;6245276;28;20056;-72
2023/08/02 07:09:59;;;;;;;4.60;2.00;;;;;;;23.07;76.16;99191.16;6245205;28;20493;-72
2023/08/02 07:13:00;;;;;;;2.67;2.20;;;;;;;23.30;76.17;99193.53;6278600;28;20056;-71
2023/08/02 07:16:00;;;;;;;4.13;1.80;;;;;;;23.37;75.50;99190.91;6246307;28;20525;-71
2023/08/02 07:19:02;;;;;;;4.03;2.17;;;;;;;23.66;74.24;99187.13;6246561;28;20045;-71
2023/08/02 07:22:06;;;;;;;2.33;1.42;;;;;;;23.77;73.69;99183.13;6250932;28;20045;-70
2023/08/02 07:25:07;;;;;;;2.33;1.77;;;;;;;23.81;72.68;99190.50;6250464;28;20103;-71
2023/08/02 07:28:08;;;;;;;2.90;1.90;;;;;;;23.64;72.08;99194.50;6250110;28;20053;-71
2023/08/02 07:31:11;;;;;;;3.20;1.50;;;;;;;23.96;73.02;99197.50;6251267;28;20158;-71
2023/08/02 07:34:12;;;;;;;1.98;1.70;;;;;;;24.32;69.51;99202.50;6250308;28;20075;-70
2023/08/02 07:37:15;;;;;;;2.43;1.77;;;;;;;24.55;69.36;99206.66;6249684;28;20061;-71
2023/08/02 07:40:16;;;;;;;1.98;1.73;;;;;;;24.37;69.00;99221.34;6251067;28;20408;-70
2023/08/02 07:43:17;;;;;;;4.47;2.27;;;;;;;24.64;68.92;99214.22;6249884;28;20053;-72
2023/08/02 07:46:20;;;;;;;3.30;1.90;;;;;;;24.72;67.27;99219.34;6250810;28;20053;-71
2023/08/02 07:49:22;;;;;;;3.55;1.95;;;;;;;24.77;66.61;99213.41;6266175;28;20508;-71
2023/08/02 07:52:23;;;;;;;2.22;1.55;;;;;;;24.95;66.21;99228.78;6250989;28;20056;-71
2023/08/02 07:55:26;;;;;;;7.23;2.37;;;;;;;24.89;65.72;99222.44;6250747;28;20084;-71
2023/08/02 07:58:31;;;;;;;2.60;1.88;;;;;;;24.86;64.90;99232.69;6250799;28;20045;-71
2023/08/02 08:01:33;;;;;;;2.85;1.70;;;;;;;25.08;64.03;99244.78;6250701;28;20050;-71
2023/08/02 08:04:33;;;;;;;3.23;1.50;;;;;;;25.64;63.19;99232.75;6250777;28;20131;-71
2023/08/02 08:07:34;;;;;;;3.00;1.67;;;;;;;25.40;62.60;99244.94;6249331;28;20053;-71
2023/08/02 08:10:37;;;;;;;1.77;1.40;;;;;;;25.64;62.53;99245.28;6249018;28;20132;-71
2023/08/02 08:13:41;;;;;;;3.65;1.70;;;;;;;25.76;62.25;99240.94;6250274;28;20492;-71
2023/08/02 08:16:41;;;;;;;3.08;1.55;;;;;;;25.96;60.73;99240.03;6250127;28;20046;-70
2023/08/02 08:19:45;;;;;;;1.93;1.47;;;;;;;26.23;62.67;99232.66;6250176;28;20049;-71
2023/08/02 08:22:47;;;;;;;4.80;1.67;;;;;;;26.53;59.12;99247.06;6249977;28;20045;-70
2023/08/02 08:25:47;;;;;;;2.58;1.65;;;;;;;25.71;60.39;99246.06;6265560;28;20052;-70
2023/08/02 08:28:48;;;;;;;3.00;2.20;;;;;;;25.43;60.99;99263.22;6248649;28;20120;-70
2023/08/02 08:31:49;;;;;;;1.93;1.43;;;;;;;25.30;62.01;99252.56;6249748;28;20049;-70
2023/08/02 08:34:49;;;;;;;4.60;1.50;;;;;;;24.92;60.44;99259.34;6249912;28;20049;-70
2023/08/02 08:37:52;;;;;;;3.87;1.47;;;;;;;25.18;60.52;99259.53;6250198;28;20615;-71
2023/08/02 08:40:54;;;;;;;3.85;1.50;;;;;;;25.27;59.63;99248.47;6249718;28;20420;-70
2023/08/02 08:43:55;;;;;;;2.42;1.77;;;;;;;25.83;59.18;99246.22;6248385;28;20057;-71
2023/08/02 08:47:00;;;;;;;2.45;1.15;;;;;;;26.33;58.80;99241.84;6265124;28;20480;-71
2023/08/02 08:50:04;;;;;;;2.08;1.60;;;;;;;26.29;57.75;99239.81;6249383;28;20111;-71
2023/08/02 08:53:08;;;;;;;1.50;1.30;;;;;;;25.79;57.57;99232.47;6248406;28;20132;-71
2023/08/02 08:56:10;;;;;;;2.72;1.50;;;;;;;26.06;57.24;99229.69;6264680;28;20060;-71
2023/08/02 08:59:14;;;;;;;3.08;1.45;;;;;;;25.02;58.25;99226.94;6248226;28;20091;-71
2023/08/02 09:02:15;;;;;;;2.70;1.52;;;;;;;26.14;56.67;99235.59;6249258;28;20056;-70
2023/08/02 09:05:16;;;;;;;1.80;1.40;;;;;;;26.62;56.82;99239.63;6248137;28;20049;-71
2023/08/02 09:08:17;;;;;;;2.53;1.38;;;;;;;26.97;55.49;99243.66;6248997;28;20054;-71
2023/08/02 09:11:21;;;;;;;5.32;1.35;;;;;;;27.12;52.49;99234.25;6248099;28;20057;-70
2023/08/02 09:14:21;;;;;;;2.13;1.35;;;;;;;27.32;53.56;99231.41;6249119;28;20128;-71
2023/08/02 09:17:22;;;;;;;2.10;1.00;;;;;;;26.96;52.25;99234.81;6248733;28;20049;-71
2023/08/02 09:20:25;;;;;;;1.60;1.30;;;;;;;27.20;51.42;99230.47;6248980;28;20155;-71
2023/08/02 09:23:26;;;;;;;1.15;1.05;;;;;;;26.91;54.96;99226.59;6248605;28;20416;-71
2023/08/02 09:26:27;;;;;;;1.27;1.10;;;;;;;27.57;51.10;99229.66;6264331;28;20053;-71
2023/08/02 09:29:51;;;;;;;2.13;1.40;;;;;;;27.41;51.43;99226.56;6248352;28;20053;-70
2023/08/02 09:33:07;;;;;;;2.42;1.45;;;;;;;27.99;51.53;99229.78;6248439;28;20053;-70
2023/08/02 09:36:08;;;;;;;2.35;1.27;;;;;;;28.16;48.52;99230.75;6248347;28;20060;-70
2023/08/02 09:39:09;;;;;;;5.43;1.40;;;;;;;28.29;48.38;99237.78;6263849;28;20045;-70
2023/08/02 09:42:15;;;;;;;1.67;1.23;;;;;;;28.51;48.73;99233.56;6263062;28;20045;-70
2023/08/02 09:45:31;;;;;;;1.45;1.25;;;;;;;28.47;47.63;99244.97;6248314;28;20073;-71
2023/08/02 09:48:35;;;;;;;2.20;1.15;;;;;;;28.29;47.05;99237.78;6246775;28;20045;-70
2023/08/02 09:51:39;;;;;;;1.33;1.05;;;;;;;28.52;46.86;99237.88;6246987;28;20049;-70
2023/08/02 09:54:39;;;;;;;1.58;1.08;;;;;;;28.74;47.63;99234.63;6247908;28;20481;-70
2023/08/02 09:57:43;;;;;;;1.08;0.98;;;;;;;28.83;46.66;99238.63;6247983;28;20053;-71
2023/08/02 10:00:44;;;;;;;3.40;1.58;;;;;;;28.94;47.69;99235.13;6246600;28;20045;-71
2023/08/02 10:03:51;;;;;;;3.10;1.17;;;;;;;28.20;46.53;99242.66;6246815;28;20512;-71
2023/08/02 10:07:05;;;;;;;1.30;1.00;;;;;;;29.24;45.56;99241.44;6247690;28;20057;-70
2023/08/02 10:10:18;;;;;;;3.60;1.08;;;;;;;29.81;42.70;99244.25;6247510;28;20084;-70
2023/08/02 10:13:25;;;;;;;1.25;1.08;;;;;;;29.78;43.43;99243.94;6262855;28;20049;-71
2023/08/02 10:16:26;;;;;;;1.70;1.10;;;;;;;28.71;45.48;99243.16;6247583;28;20053;-70
2023/08/02 10:19:30;;;;;;;;;;;;;;;28.00;45.36;99237.56;6247773;28;20163;-71
2023/08/02 10:22:31;;;;;;;1.38;1.13;;;;;;;28.18;45.33;99234.03;6247572;28;19944;-70
2023/08/02 10:25:35;;;;;;;0.52;0.52;;;;;;;27.94;48.05;99233.13;6262657;28;20058;-70
2023/08/02 10:28:37;;;;;;;1.13;1.00;;;;;;;28.12;44.88;99233.06;6246019;28;20092;-70
2023/08/02 10:31:38;;;;;;;1.27;0.80;;;;;;;27.63;45.17;99242.97;6247178;28;20497;-70
2023/08/02 10:34:38;;;;;;;1.55;0.88;;;;;;;27.66;45.20;99241.72;6245639;28;20068;-70
2023/08/02 10:37:56;;;;;;;1.45;1.10;;;;;;;28.10;44.27;99224.44;6246957;28;20049;-70
2023/08/02 10:41:09;;;;;;;1.23;0.80;;;;;;;27.07;44.80;99223.38;6262583;28;20045;-71
2023/08/02 10:44:12;;;;;;;1.38;1.00;;;;;;;27.54;44.49;99222.91;6245769;28;20057;-71
2023/08/02 10:47:24;;;;;;;1.85;0.80;;;;;;;28.68;45.12;99220.31;6245657;28;20056;-70
2023/08/02 10:50:44;;;;;;;1.25;0.90;;;;;;;28.46;46.60;99220.00;6246705;28;20111;-70
2023/08/02 10:54:15;;;;;;;2.80;1.05;;;;;;;28.73;44.87;99220.41;6245406;28;20418;-71
2023/08/02 10:57:18;;;;;;;1.10;0.98;;;;;;;28.89;43.27;99215.38;6261922;28;20390;-70
2023/08/02 11:00:23;;;;;;;3.05;0.90;;;;;;;28.84;42.98;99220.66;6245327;28;20452;-70
2023/08/02 11:03:28;;;;;;;1.73;0.85;;;;;;;29.34;40.55;99217.47;6246497;28;20532;-70
2023/08/02 11:06:29;;;;;;;3.50;0.95;;;;;;;29.62;41.16;99205.16;6246711;28;20073;-70
2023/08/02 11:09:34;;;;;;;2.63;0.80;;;;;;;29.05;41.78;99201.25;6246241;28;20489;-70
2023/08/02 11:12:34;;;;;;;1.33;0.80;;;;;;;28.08;42.42;99196.22;6246732;28;20136;-70
2023/08/02 11:15:35;;;;;;;6.32;1.00;;;;;;;28.95;44.66;99203.69;6245221;28;20053;-70
2023/08/02 11:18:37;;;;;;;0.75;0.75;;;;;;;28.65;40.22;99212.69;6246553;28;20510;-70
2023/08/02 11:21:38;;;;;;;;;;;;;;;28.69;39.92;99205.81;6262162;28;20053;-71
2023/08/02 11:24:42;;;;;;;0.60;0.60;;;;;;;29.45;40.14;99207.78;6246299;28;20378;-70
2023/08/02 11:27:43;;;;;;;1.08;0.90;;;;;;;30.19;41.35;99207.03;6246243;28;20053;-70
2023/08/02 11:30:49;;;;;;;1.17;0.70;;;;;;;29.05;41.97;99203.13;6244866;28;20417;-70
2023/08/02 11:33:50;;;;;;;0.60;0.60;;;;;;;29.98;41.64;99201.28;6246754;28;20106;-70
2023/08/02 11:36:51;;;;;;;0.70;0.60;;;;;;;29.81;38.51;99203.91;6246012;28;20049;-71
2023/08/02 11:39:57;;;;;;;4.15;1.00;;;;;;;29.61;39.85;99201.66;6246042;28;20140;-70
2023/08/02 11:42:57;;;;;;;3.00;0.80;;;;;;;28.99;40.08;99187.94;6244875;28;20497;-70
2023/08/02 11:45:58;;;;;;;0.68;0.60;;;;;;;29.13;40.77;99194.72;6245080;28;20056;-71
2023/08/02 11:49:07;;;;;;;2.30;1.00;;;;;;;29.37;40.48;99195.50;6244717;28;20087;-70
2023/08/02 11:52:09;;;;;;;0.60;0.60;;;;;;;29.85;38.34;99196.19;6245141;28;20089;-71
2023/08/02 11:55:12;;;;;;;0.88;0.70;;;;;;;29.36;39.92;99191.19;6246020;28;20128;-70
2023/08/02 11:58:13;;;;;;;1.15;0.75;;;;;;;28.71;40.65;99184.13;6244998;28;20056;-70
2023/08/02 12:01:17;;;;;;;0.95;0.80;;;;;;;28.37;41.19;99181.13;6244637;28;20037;-71
2023/08/02 12:04:18;;;;;;;0.80;0.77;;;;;;;28.56;40.59;99176.53;6246125;28;20060;-71
2023/08/02 12:07:30;;;;;;;0.90;0.70;;;;;;;29.60;41.42;99167.75;6248969;28;20049;-71
2023/08/02 12:10:32;;;;;;;2.50;0.80;;;;;;;29.60;39.07;99167.75;6250282;28;20446;-71
2023/08/02 12:13:33;;;;;;;0.95;0.77;;;;;;;29.30;40.14;99173.31;6251038;28;20061;-71
2023/08/02 12:16:54;;;;;;;0.85;0.77;;;;;;;28.99;40.23;99171.84;6250274;28;20050;-71
2023/08/02 12:19:55;;;;;;;1.27;0.93;;;;;;;29.35;40.11;99176.13;6249259;28;20056;-70
2023/08/02 12:22:56;;;;;;;0.75;0.70;;;;;;;29.97;40.65;99166.56;6249172;28;20079;-70
2023/08/02 12:25:57;;;;;;;1.27;0.77;;;;;;;30.28;40.23;99171.41;6249038;28;20132;-71
2023/08/02 12:29:01;;;;;;;0.80;0.50;;;;;;;30.44;38.19;99172.50;6249787;28;20092;-71
2023/08/02 12:32:02;;;;;;;2.22;0.63;;;;;;;30.36;38.20;99155.94;6248957;28;20046;-71
2023/08/02 12:35:07;;;;;;;3.17;0.68;;;;;;;29.92;39.22;99162.72;6248551;28;20065;-70
2023/08/02 12:38:10;;;;;;;2.67;0.60;;;;;;;29.83;39.70;99169.53;6248820;28;20100;-70
2023/08/02 12:41:11;;;;;;;1.13;0.63;;;;;;;29.81;39.67;99168.16;6248500;28;20049;-71
2023/08/02 12:44:11;;;;;;;1.13;0.70;;;;;;;29.34;38.23;99166.44;6248574;28;20418;-70
2023/08/02 12:47:12;;;;;;;1.38;0.47;;;;;;;30.06;39.79;99167.78;6249763;28;20045;-70
2023/08/02 12:50:13;;;;;;;1.13;0.60;;;;;;;30.26;38.75;99164.63;6248448;28;20128;-70
2023/08/02 12:53:14;;;;;;;1.08;0.73;;;;;;;29.80;38.76;99163.84;6248851;28;20056;-70
2023/08/02 12:56:14;;;;;;;1.13;0.57;;;;;;;29.84;37.50;99155.06;6249366;28;20421;-71
2023/08/02 12:59:15;;;;;;;1.13;0.50;;;;;;;29.65;38.36;99157.13;6248203;28;20183;-71
2023/08/02 13:02:16;;;;;;;2.40;0.90;;;;;;;29.16;39.80;99147.78;6264680;28;20049;-71
2023/08/02 13:05:17;;;;;;;1.33;0.85;;;;;;;28.59;38.98;99145.72;6249166;28;20049;-71
2023/08/02 13:08:18;;;;;;;1.75;0.77;;;;;;;29.07;40.39;99142.75;6264673;28;20148;-71
2023/08/02 13:11:19;;;;;;;1.02;0.70;;;;;;;29.13;39.95;99149.09;6248002;28;20045;-71
2023/08/02 13:14:19;;;;;;;4.90;0.85;;;;;;;28.97;40.37;99152.47;6249030;28;20428;-70
2023/08/02 13:17:20;;;;;;;0.75;0.70;;;;;;;29.53;39.46;99156.34;6263360;28;20045;-70
2023/08/02 13:20:23;;;;;;;0.70;0.60;;;;;;;29.50;40.12;99144.19;6264246;28;20054;-70
2023/08/02 13:23:24;;;;;;;0.55;0.55;;;;;;;29.45;38.13;99152.16;6247612;28;20050;-70
2023/08/02 13:26:25;;;;;;;1.13;0.57;;;;;;;29.36;39.49;99144.69;6264225;28;20077;-70
2023/08/02 13:29:25;;;;;;;1.35;0.60;;;;;;;28.83;38.36;99142.00;6263872;28;20049;-70
2023/08/02 13:32:28;;;;;;;0.80;0.75;;;;;;;28.85;41.15;99137.19;6264125;28;20104;-70
2023/08/02 13:35:29;;;;;;;0.65;0.55;;;;;;;29.12;39.96;99148.28;6248370;28;20519;-70
2023/08/02 13:38:30;;;;;;;2.45;0.50;;;;;;;29.28;39.64;99135.97;6248448;28;20049;-70
2023/08/02 13:41:31;;;;;;;0.68;0.68;;;;;;;29.16;39.88;99140.56;6263792;28;20501;-70
2023/08/02 13:44:32;;;;;;;1.65;0.70;;;;;;;28.85;41.48;99149.81;6263927;28;20096;-70
2023/08/02 13:47:33;;;;;;;1.08;0.70;;;;;;;28.60;40.13;99150.88;6248249;28;20050;-70
2023/08/02 13:50:37;;;;;;;1.00;0.60;;;;;;;28.47;39.97;99137.66;6248259;28;20050;-70
2023/08/02 13:53:38;;;;;;;0.98;0.63;;;;;;;28.59;40.65;99146.53;6248051;28;20093;-70
2023/08/02 13:56:39;;;;;;;1.13;0.65;;;;;;;28.82;41.37;99151.06;6246822;28;20489;-70
2023/08/02 13:59:42;;;;;;;1.33;0.77;;;;;;;29.09;41.09;99140.66;6248099;28;20056;-71
2023/08/02 14:02:48;;;;;;;1.17;0.50;;;;;;;28.85;36.77;99139.88;6247717;28;20501;-70
2023/08/02 14:05:49;;;;;;;0.85;0.55;;;;;;;28.89;36.91;99134.84;6248170;28;20053;-71
2023/08/02 14:08:49;;;;;;;0.57;0.40;;;;;;;28.78;37.58;99143.75;6247631;28;20056;-71
2023/08/02 14:11:50;;;;;;;2.40;0.70;;;;;;;28.75;37.56;99128.94;6247736;28;20057;-71
2023/08/02 14:14:53;;;;;;;3.63;0.60;;;;;;;28.72;35.85;99127.53;6246427;28;20115;-70
2023/08/02 14:17:54;;;;;;;1.15;0.65;;;;;;;29.01;37.78;99129.47;6247693;28;20049;-71